createdAt,value
2018-12-11T00:02:19.002Z,101.10
2018-12-11T00:04:47.367Z,252.80
2018-12-11T00:07:15.967Z,328.57
2018-12-11T00:09:44.577Z,87.80
2018-12-11T00:12:12.679Z,80.87
2018-12-11T00:14:41.032Z,206.27
2018-12-11T00:17:09.540Z,405.33
2018-12-11T00:19:38.018Z,29.97
2018-12-11T00:22:06.713Z,176.83
2018-12-11T00:24:35.024Z,30.20
2018-12-11T00:27:03.209Z,194.40
2018-12-11T00:29:31.298Z,99.07
2018-12-11T00:32:00.186Z,102.40
2018-12-11T00:34:29.315Z,109.90
2018-12-11T00:36:57.840Z,261.23
2018-12-11T00:39:26.405Z,46.60
2018-12-11T00:41:54.608Z,109.57
2018-12-11T00:44:22.613Z,371.83
2018-12-11T00:46:51.068Z,47.77
2018-12-11T00:49:19.696Z,326.63
2018-12-11T00:51:47.929Z,180.80
2018-12-11T00:54:15.919Z,67.40
2018-12-11T00:56:43.899Z,137.43
2018-12-11T00:59:11.993Z,38.30
2018-12-11T01:01:39.911Z,301.10
2018-12-11T01:04:07.833Z,102.80
2018-12-11T01:06:35.747Z,38.17
2018-12-11T01:09:04.832Z,38.23
2018-12-11T01:11:32.734Z,179.73
2018-12-11T01:14:00.628Z,150.77
2018-12-11T01:16:28.548Z,248.43
2018-12-11T01:18:56.442Z,110.20
2018-12-11T01:21:24.900Z,309.30
2018-12-11T01:23:52.796Z,406.57
2018-12-11T01:26:20.710Z,74.20
2018-12-11T01:28:48.604Z,346.47
2018-12-11T01:31:16.580Z,87.30
2018-12-11T01:33:44.496Z,107.50
2018-12-11T01:36:12.411Z,124.87
2018-12-11T01:38:40.327Z,220.93
2018-12-11T01:41:08.248Z,84.67
2018-12-11T01:43:36.212Z,457.77
2018-12-11T01:46:04.152Z,30.70
2018-12-11T01:48:32.158Z,235.97
2018-12-11T01:51:00.090Z,108.47
2018-12-11T01:53:28.013Z,515.63
2018-12-11T01:55:55.923Z,461.70
2018-12-11T01:58:23.850Z,810.50
2018-12-11T02:00:51.752Z,432.97
2018-12-11T02:03:20.065Z,118.43
2018-12-11T02:05:48.014Z,96.50
2018-12-11T02:08:15.907Z,106.50
2018-12-11T02:10:43.813Z,99.90
2018-12-11T02:13:11.756Z,201.53
2018-12-11T02:15:39.666Z,360.47
2018-12-11T02:18:07.576Z,649.03
2018-12-11T02:20:35.483Z,810.53
2018-12-11T02:23:03.380Z,524.87
2018-12-11T02:25:31.320Z,724.07
2018-12-11T02:27:59.215Z,232.30
2018-12-11T02:30:27.123Z,49.03
2018-12-11T02:32:55.173Z,392.37
2018-12-11T02:35:23.218Z,551.43
2018-12-11T02:37:51.121Z,213.50
2018-12-11T02:40:19.032Z,183.43
2018-12-11T02:42:46.972Z,289.30
2018-12-11T02:45:14.830Z,597.50
2018-12-11T02:47:42.789Z,229.47
2018-12-11T02:50:10.709Z,612.57
2018-12-11T02:52:38.579Z,395.83
2018-12-11T02:55:06.472Z,405.97
2018-12-11T02:57:34.389Z,244.30
2018-12-11T03:00:02.357Z,160.03
2018-12-11T03:02:30.271Z,612.17
2018-12-11T03:04:58.185Z,513.30
2018-12-11T03:07:26.124Z,289.37
2018-12-11T03:09:53.989Z,668.67
2018-12-11T03:12:21.942Z,510.67
2018-12-11T03:14:49.856Z,499.67
2018-12-11T03:17:17.765Z,407.30
2018-12-11T03:19:45.668Z,297.07
2018-12-11T03:22:13.540Z,442.57
2018-12-11T03:24:41.501Z,528.80
2018-12-11T03:27:09.416Z,665.10
2018-12-11T03:29:37.326Z,402.03
2018-12-11T03:32:05.236Z,760.33
2018-12-11T03:34:33.174Z,907.80
2018-12-11T03:37:01.112Z,999.90
2018-12-11T03:39:29.037Z,507.77
2018-12-11T03:41:56.955Z,826.07
2018-12-11T03:44:24.900Z,681.27
2018-12-11T03:46:52.821Z,795.07
2018-12-11T03:49:20.745Z,309.77
2018-12-11T03:51:48.697Z,512.33
2018-12-11T03:54:16.621Z,486.47
2018-12-11T03:56:44.581Z,585.17
2018-12-11T03:59:12.541Z,718.63
2018-12-11T04:01:40.462Z,746.90
2018-12-11T04:04:08.368Z,949.73
2018-12-11T04:06:36.329Z,743.67
2018-12-11T04:09:05.816Z,992.47
2018-12-11T04:11:33.702Z,776.57
2018-12-11T04:14:01.634Z,576.80
2018-12-11T04:16:29.572Z,570.30
2018-12-11T04:18:57.447Z,390.93
2018-12-11T04:21:25.318Z,427.83
2018-12-11T04:23:53.241Z,760.07
2018-12-11T04:26:21.153Z,501.40
2018-12-11T04:28:49.082Z,823.53
2018-12-11T04:31:17.002Z,816.37
2018-12-11T04:33:44.958Z,999.90
2018-12-11T04:36:12.897Z,711.63
2018-12-11T04:38:40.833Z,409.23
2018-12-11T04:41:08.772Z,742.67
2018-12-11T04:43:36.721Z,738.67
2018-12-11T04:46:04.644Z,946.57
2018-12-11T04:48:32.593Z,618.03
2018-12-11T04:51:00.513Z,986.50
2018-12-11T04:53:28.451Z,926.77
2018-12-11T04:55:56.421Z,999.90
2018-12-11T04:58:24.404Z,761.03
2018-12-11T05:00:52.389Z,941.93
2018-12-11T05:03:20.304Z,999.90
2018-12-11T05:05:48.272Z,999.90
2018-12-11T05:08:17.248Z,999.90
2018-12-11T05:10:45.189Z,999.90
2018-12-11T05:13:13.148Z,917.87
2018-12-11T05:15:41.079Z,775.37
2018-12-11T05:18:09.014Z,568.33
2018-12-11T05:20:36.953Z,999.90
2018-12-11T05:23:04.902Z,368.73
2018-12-11T05:25:32.823Z,880.43
2018-12-11T05:28:00.787Z,999.90
2018-12-11T05:30:28.709Z,537.23
2018-12-11T05:32:56.592Z,792.10
2018-12-11T05:35:24.467Z,642.70
2018-12-11T05:37:52.405Z,374.40
2018-12-11T05:40:20.364Z,768.77
2018-12-11T05:42:48.277Z,411.57
2018-12-11T05:45:16.206Z,446.43
2018-12-11T05:47:44.209Z,815.63
2018-12-11T05:50:12.172Z,537.40
2018-12-11T05:52:40.036Z,547.03
2018-12-11T05:55:07.993Z,318.80
2018-12-11T05:57:35.913Z,666.00
2018-12-11T06:00:04.500Z,521.53
2018-12-11T06:02:32.412Z,691.27
2018-12-11T06:05:00.417Z,805.93
2018-12-11T06:07:28.345Z,740.30
2018-12-11T06:09:56.297Z,894.07
2018-12-11T06:12:24.219Z,552.57
2018-12-11T06:14:52.089Z,951.10
2018-12-11T06:17:20.024Z,802.93
2018-12-11T06:19:47.950Z,802.47
2018-12-11T06:22:15.884Z,999.90
2018-12-11T06:24:43.801Z,834.73
2018-12-11T06:27:11.755Z,289.13
2018-12-11T06:29:40.565Z,629.33
2018-12-11T06:32:08.918Z,836.67
2018-12-11T06:34:37.084Z,481.10
2018-12-11T06:37:05.180Z,884.53
2018-12-11T06:39:33.400Z,738.63
2018-12-11T06:42:02.004Z,737.57
2018-12-11T06:44:30.561Z,428.60
2018-12-11T06:46:58.664Z,812.77
2018-12-11T06:49:26.758Z,881.67
2018-12-11T06:51:54.801Z,80.80
2018-12-11T06:54:22.978Z,272.17
2018-12-11T06:56:51.191Z,296.40
2018-12-11T06:59:19.165Z,695.00
2018-12-11T07:01:47.084Z,570.30
2018-12-11T07:04:14.973Z,672.67
2018-12-11T07:06:42.953Z,637.63
2018-12-11T07:09:10.887Z,564.37
2018-12-11T07:11:38.819Z,456.50
2018-12-11T07:14:06.723Z,499.47
2018-12-11T07:16:34.627Z,980.57
2018-12-11T07:19:02.551Z,701.17
2018-12-11T07:21:31.185Z,433.87
2018-12-11T07:23:59.090Z,428.40
2018-12-11T07:26:27.013Z,581.40
2018-12-11T07:28:54.924Z,542.23
2018-12-11T07:31:22.850Z,613.27
2018-12-11T07:33:51.116Z,332.20
2018-12-11T07:36:19.192Z,650.23
2018-12-11T07:38:47.095Z,710.60
2018-12-11T07:41:15.063Z,625.83
2018-12-11T07:43:42.972Z,525.60
2018-12-11T07:46:10.893Z,368.50
2018-12-11T07:48:38.828Z,911.30
2018-12-11T07:51:06.702Z,734.47
2018-12-11T07:53:34.638Z,485.70
2018-12-11T07:56:02.576Z,237.47
2018-12-11T07:58:30.483Z,420.23
2018-12-11T08:00:58.431Z,541.73
2018-12-11T08:03:26.340Z,328.83
2018-12-11T08:05:54.369Z,288.27
2018-12-11T08:08:22.317Z,559.27
2018-12-11T08:10:50.241Z,868.20
2018-12-11T08:13:18.168Z,583.67
2018-12-11T08:15:46.093Z,77.07
2018-12-11T08:18:14.028Z,736.00
2018-12-11T08:20:42.045Z,373.17
2018-12-11T08:23:09.955Z,544.87
2018-12-11T08:25:37.885Z,668.83
2018-12-11T08:28:05.763Z,137.63
2018-12-11T08:30:33.698Z,438.30
2018-12-11T08:33:01.625Z,138.07
2018-12-11T08:35:29.530Z,158.13
2018-12-11T08:37:57.493Z,87.97
2018-12-11T08:40:25.399Z,481.10
2018-12-11T08:42:53.330Z,394.60
2018-12-11T08:45:21.242Z,513.77
2018-12-11T08:47:49.160Z,112.87
2018-12-11T08:50:17.089Z,634.17
2018-12-11T08:52:45.037Z,290.17
2018-12-11T08:55:12.949Z,540.57
2018-12-11T08:57:40.924Z,128.20
2018-12-11T09:00:08.996Z,190.83
2018-12-11T09:02:37.010Z,187.57
2018-12-11T09:05:04.925Z,145.33
2018-12-11T09:07:32.858Z,830.37
2018-12-11T09:10:00.725Z,694.30
2018-12-11T09:12:28.638Z,840.93
2018-12-11T09:14:56.643Z,246.30
2018-12-11T09:17:24.597Z,416.87
2018-12-11T09:19:52.470Z,155.70
2018-12-11T09:22:20.413Z,640.50
2018-12-11T09:24:48.333Z,668.00
2018-12-11T09:27:16.239Z,506.40
2018-12-11T09:29:44.200Z,751.37
2018-12-11T09:32:12.111Z,429.07
2018-12-11T09:34:40.040Z,567.53
2018-12-11T09:37:07.945Z,442.37
2018-12-11T09:39:35.881Z,62.23
2018-12-11T09:42:07.031Z,55.03
2018-12-11T09:44:33.722Z,278.23
2018-12-11T09:47:01.651Z,603.33
2018-12-11T09:49:30.005Z,106.20
2018-12-11T09:51:58.110Z,324.03
2018-12-11T09:54:26.042Z,72.43
2018-12-11T09:56:53.961Z,153.30
2018-12-11T09:59:23.508Z,729.67
2018-12-11T10:01:51.729Z,146.57
2018-12-11T10:04:19.613Z,180.43
2018-12-11T10:06:47.544Z,235.80
2018-12-11T10:09:15.542Z,466.90
2018-12-11T10:11:43.444Z,218.43
2018-12-11T10:14:11.353Z,376.10
2018-12-11T10:16:39.286Z,115.37
2018-12-11T10:19:07.194Z,428.10
2018-12-11T10:21:35.127Z,242.87
2018-12-11T10:24:03.023Z,270.07
2018-12-11T10:26:30.956Z,198.50
2018-12-11T10:28:58.990Z,264.93
2018-12-11T10:31:26.909Z,138.20
2018-12-11T10:33:54.803Z,239.37
2018-12-11T10:36:22.757Z,545.40
2018-12-11T10:38:50.661Z,309.47
2018-12-11T10:41:18.567Z,95.30
2018-12-11T10:43:46.473Z,96.10
2018-12-11T10:46:14.439Z,139.20
2018-12-11T10:48:42.345Z,261.27
2018-12-11T10:51:10.513Z,151.43
2018-12-11T10:53:38.439Z,30.27
2018-12-11T10:56:06.353Z,147.40
2018-12-11T10:58:34.257Z,181.30
2018-12-11T11:01:07.805Z,93.93
2018-12-11T11:03:35.679Z,268.80
2018-12-11T11:06:03.624Z,587.63
2018-12-11T11:08:31.567Z,140.97
2018-12-11T11:10:59.489Z,188.67
2018-12-11T11:13:27.442Z,754.83
2018-12-11T11:15:55.362Z,103.73
2018-12-11T11:18:23.269Z,128.03
2018-12-11T11:20:51.226Z,192.10
2018-12-11T11:23:19.132Z,323.33
2018-12-11T11:25:47.036Z,107.23
2018-12-11T11:28:14.952Z,153.13
2018-12-11T11:30:43.116Z,43.93
2018-12-11T11:33:11.037Z,69.87
2018-12-11T11:35:39.010Z,316.70
2018-12-11T11:38:06.964Z,201.43
2018-12-11T11:40:34.820Z,88.33
2018-12-11T11:43:02.737Z,47.53
2018-12-11T11:45:30.750Z,561.67
2018-12-11T11:47:58.764Z,280.13
2018-12-11T11:50:26.733Z,346.87
2018-12-11T11:52:54.649Z,464.37
2018-12-11T11:55:22.636Z,238.17
2018-12-11T11:57:50.548Z,69.60
2018-12-11T12:00:18.519Z,152.47
2018-12-11T12:02:46.452Z,60.30
2018-12-11T12:05:14.359Z,145.60
2018-12-11T12:07:42.281Z,32.00
2018-12-11T12:10:10.620Z,166.13
2018-12-11T12:12:38.563Z,139.27
2018-12-11T12:15:07.231Z,42.00
2018-12-11T12:17:36.318Z,59.37
2018-12-11T12:20:06.330Z,48.90
2018-12-11T12:22:34.300Z,169.67
2018-12-11T12:25:02.218Z,448.67
2018-12-11T12:27:30.149Z,246.10
2018-12-11T12:29:58.049Z,54.90
2018-12-11T12:32:26.550Z,153.57
2018-12-11T12:34:55.088Z,133.57
2018-12-11T12:37:23.453Z,35.00
2018-12-11T12:39:51.915Z,227.27
2018-12-11T12:42:20.431Z,226.33
2018-12-11T12:44:49.096Z,201.07
2018-12-11T12:47:17.402Z,271.27
2018-12-11T12:49:50.620Z,265.27
2018-12-11T12:52:15.930Z,157.30
2018-12-11T12:54:44.161Z,344.17
2018-12-11T12:57:12.101Z,95.07
2018-12-11T12:59:40.043Z,429.73
2018-12-11T13:02:07.947Z,385.60
2018-12-11T13:04:35.889Z,468.57
2018-12-11T13:07:03.795Z,453.10
2018-12-11T13:09:31.705Z,736.80
2018-12-11T13:12:00.171Z,734.23
2018-12-11T13:14:28.425Z,795.20
2018-12-11T13:16:58.276Z,562.47
2018-12-11T13:19:26.582Z,705.97
2018-12-11T13:21:55.098Z,666.37
2018-12-11T13:24:23.990Z,341.60
2018-12-11T13:26:52.606Z,510.60
2018-12-11T13:29:20.915Z,827.57
2018-12-11T13:31:49.041Z,157.97
2018-12-11T13:34:17.425Z,282.17
2018-12-11T13:36:46.639Z,737.77
2018-12-11T13:39:15.218Z,106.73
2018-12-11T13:41:43.800Z,424.67
2018-12-11T13:44:12.206Z,299.37
2018-12-11T13:46:40.683Z,313.83
2018-12-11T13:49:09.137Z,297.13
2018-12-11T13:51:37.601Z,257.83
2018-12-11T13:54:05.859Z,312.40
2018-12-11T13:56:33.932Z,353.13
2018-12-11T13:59:04.630Z,462.13
2018-12-11T14:01:32.675Z,582.07
2018-12-11T14:04:00.893Z,604.50
2018-12-11T14:06:29.608Z,577.03
2018-12-11T14:08:59.889Z,640.27
2018-12-11T14:11:28.549Z,572.23
2018-12-11T14:13:57.197Z,773.53
2018-12-11T14:16:25.663Z,723.83
2018-12-11T14:18:53.631Z,794.60
2018-12-11T14:21:23.810Z,618.20
2018-12-11T14:23:52.144Z,499.00
2018-12-11T14:26:21.056Z,655.93
2018-12-11T14:28:49.661Z,607.90
2018-12-11T14:31:18.128Z,542.77
2018-12-11T14:33:46.554Z,589.30
2018-12-11T14:36:14.730Z,604.77
2018-12-11T14:38:42.993Z,502.20
2018-12-11T14:41:11.425Z,605.67
2018-12-11T14:43:39.940Z,640.20
2018-12-11T14:46:08.569Z,584.50
2018-12-11T14:48:36.638Z,526.77
2018-12-11T14:51:04.729Z,621.73
2018-12-11T14:53:33.292Z,609.17
2018-12-11T14:56:01.782Z,426.60
2018-12-11T14:58:30.370Z,650.70
2018-12-11T15:00:58.990Z,651.77
2018-12-11T15:03:27.089Z,475.80
2018-12-11T15:05:55.286Z,492.37
2018-12-11T15:08:23.907Z,846.97
2018-12-11T15:10:52.170Z,615.40
2018-12-11T15:13:20.350Z,656.87
2018-12-11T15:15:48.352Z,586.37
2018-12-11T15:18:16.641Z,656.57
2018-12-11T15:20:45.273Z,659.23
2018-12-11T15:23:13.862Z,533.47
2018-12-11T15:25:42.500Z,579.47
2018-12-11T15:28:11.128Z,643.37
2018-12-11T15:30:39.141Z,820.47
2018-12-11T15:33:07.459Z,580.50
2018-12-11T15:35:36.092Z,789.03
2018-12-11T15:38:05.526Z,565.43
2018-12-11T15:40:34.266Z,506.83
2018-12-11T15:43:02.858Z,717.93
2018-12-11T15:45:31.574Z,593.13
2018-12-11T15:48:06.239Z,697.00
2018-12-11T15:50:34.797Z,608.33
2018-12-11T15:53:03.234Z,773.83
2018-12-11T15:55:31.815Z,677.33
2018-12-11T15:58:00.692Z,566.07
2018-12-11T16:00:29.882Z,706.90
2018-12-11T16:02:58.592Z,523.30
2018-12-11T16:05:27.364Z,694.83
2018-12-11T16:07:55.971Z,765.43
2018-12-11T16:10:24.568Z,623.53
2018-12-11T16:12:53.126Z,734.63
2018-12-11T16:15:21.754Z,889.83
2018-12-11T16:17:50.423Z,727.27
2018-12-11T16:20:19.045Z,472.13
2018-12-11T16:22:48.708Z,535.07
2018-12-11T16:25:17.657Z,845.50
2018-12-11T16:27:46.530Z,588.07
2018-12-11T16:30:16.487Z,755.90
2018-12-11T16:32:44.805Z,665.50
2018-12-11T16:35:13.301Z,804.40
2018-12-11T16:37:42.065Z,602.80
2018-12-11T16:40:10.825Z,629.90
2018-12-11T16:42:38.837Z,919.03
2018-12-11T16:45:07.225Z,635.83
2018-12-11T16:47:35.399Z,925.33
2018-12-11T16:50:04.037Z,763.90
2018-12-11T16:52:32.940Z,968.90
2018-12-11T16:55:01.370Z,798.73
2018-12-11T16:57:29.651Z,586.03
2018-12-11T16:59:57.738Z,934.47
2018-12-11T17:02:25.849Z,666.63
2018-12-11T17:04:54.205Z,793.77
2018-12-11T17:07:24.269Z,875.00
2018-12-11T17:09:52.681Z,802.17
2018-12-11T17:12:20.880Z,394.73
2018-12-11T17:14:48.851Z,503.03
2018-12-11T17:17:17.071Z,486.27
2018-12-11T17:19:45.482Z,538.13
2018-12-11T17:22:13.701Z,370.43
2018-12-11T17:24:41.879Z,500.63
2018-12-11T17:27:09.926Z,663.70
2018-12-11T17:29:38.044Z,499.23
2018-12-11T17:32:06.390Z,339.33
2018-12-11T17:34:34.927Z,670.23
2018-12-11T17:37:03.086Z,560.93
2018-12-11T17:39:31.155Z,85.57
2018-12-11T17:41:59.101Z,621.33
2018-12-11T17:44:30.436Z,550.97
2018-12-11T17:46:58.634Z,327.07
2018-12-11T17:49:26.946Z,467.97
2018-12-11T17:51:55.115Z,782.70
2018-12-11T17:54:23.125Z,186.43
2018-12-11T17:56:51.207Z,50.10
2018-12-11T17:59:19.450Z,483.90
2018-12-11T18:01:50.863Z,736.73
2018-12-11T18:04:19.142Z,113.67
2018-12-11T18:06:47.654Z,82.60
2018-12-11T18:09:15.839Z,323.37
2018-12-11T18:11:43.766Z,123.53
2018-12-11T18:14:11.872Z,188.63
2018-12-11T18:16:40.267Z,219.43
2018-12-11T18:19:08.762Z,66.53
2018-12-11T18:21:36.952Z,136.13
2018-12-11T18:24:05.585Z,252.27
2018-12-11T18:26:33.749Z,97.27
2018-12-11T18:29:01.699Z,35.77
2018-12-11T18:31:30.743Z,93.30
2018-12-11T18:33:59.421Z,60.60
2018-12-11T18:36:27.784Z,40.03
2018-12-11T18:38:56.832Z,71.23
2018-12-11T18:41:25.521Z,126.90
2018-12-11T18:43:53.874Z,84.77
2018-12-11T18:46:22.943Z,192.73
2018-12-11T18:48:52.289Z,56.90
2018-12-11T18:51:21.192Z,59.97
2018-12-11T18:53:49.797Z,64.53
2018-12-11T18:56:18.388Z,55.57
2018-12-11T18:58:47.161Z,88.33
2018-12-11T19:01:15.744Z,90.63
2018-12-11T19:03:49.230Z,20.73
2018-12-11T19:06:14.112Z,30.03
2018-12-11T19:08:42.518Z,12.60
2018-12-11T19:11:11.874Z,50.60
2018-12-11T19:13:40.441Z,32.63
2018-12-11T19:16:09.267Z,52.47
2018-12-11T19:18:37.985Z,112.30
2018-12-11T19:21:06.218Z,41.17
2018-12-11T19:24:41.238Z,22.57
2018-12-11T19:27:09.475Z,96.03
2018-12-11T19:29:37.755Z,86.20
2018-12-11T19:32:06.462Z,137.50
2018-12-11T19:34:34.961Z,35.83
2018-12-11T19:37:04.529Z,67.93
2018-12-11T19:39:33.538Z,62.97
2018-12-11T19:42:02.200Z,31.70
2018-12-11T19:44:31.025Z,34.50
2018-12-11T19:46:59.578Z,26.97
2018-12-11T19:49:29.075Z,42.50
2018-12-11T19:51:57.398Z,17.97
2018-12-11T19:54:26.082Z,59.17
2018-12-11T19:56:54.647Z,300.97
2018-12-11T19:59:23.038Z,158.33
2018-12-11T20:01:51.483Z,58.30
2018-12-11T20:04:20.164Z,191.97
2018-12-11T20:06:48.522Z,361.90
2018-12-11T20:09:18.221Z,50.27
2018-12-11T20:11:46.467Z,261.77
2018-12-11T20:14:14.959Z,169.33
2018-12-11T20:16:43.085Z,150.83
2018-12-11T20:19:11.800Z,173.30
2018-12-11T20:21:40.182Z,340.90
2018-12-11T20:24:08.583Z,168.43
2018-12-11T20:26:39.573Z,76.03
2018-12-11T20:29:08.797Z,77.63
2018-12-11T20:31:42.237Z,305.00
2018-12-11T20:34:10.680Z,92.57
2018-12-11T20:36:39.201Z,325.73
2018-12-11T20:39:07.807Z,151.57
2018-12-11T20:41:35.901Z,146.20
2018-12-11T20:44:04.048Z,116.77
2018-12-11T20:46:33.392Z,413.07
2018-12-11T20:49:01.460Z,203.90
2018-12-11T20:51:29.773Z,329.00
2018-12-11T20:53:57.694Z,378.77
2018-12-11T20:56:25.726Z,90.57
2018-12-11T20:58:53.653Z,32.97
2018-12-11T21:01:21.963Z,286.37
2018-12-11T21:03:49.933Z,55.07
2018-12-11T21:06:18.171Z,56.47
2018-12-11T21:08:46.129Z,47.73
2018-12-11T21:11:14.014Z,357.20
2018-12-11T21:13:41.913Z,219.70
2018-12-11T21:16:11.097Z,241.27
2018-12-11T21:18:39.158Z,184.03
2018-12-11T21:21:07.493Z,151.37
2018-12-11T21:23:35.488Z,150.07
2018-12-11T21:26:03.516Z,99.07
2018-12-11T21:28:31.412Z,414.63
2018-12-11T21:30:59.336Z,133.47
2018-12-11T21:33:27.376Z,206.20
2018-12-11T21:35:55.440Z,458.23
2018-12-11T21:38:23.334Z,358.10
2018-12-11T21:40:51.328Z,189.23
2018-12-11T21:43:19.319Z,128.73
2018-12-11T21:45:47.264Z,127.93
2018-12-11T21:48:15.203Z,537.97
2018-12-11T21:50:43.136Z,517.07
2018-12-11T21:53:11.026Z,270.77
2018-12-11T21:55:38.964Z,357.87
2018-12-11T21:58:06.825Z,267.27
2018-12-11T22:00:34.729Z,415.27
2018-12-11T22:03:02.737Z,976.43
2018-12-11T22:05:30.846Z,476.70
2018-12-11T22:08:02.488Z,282.43
2018-12-11T22:10:31.599Z,183.70
2018-12-11T22:12:59.592Z,422.27
2018-12-11T22:15:27.614Z,420.90
2018-12-11T22:17:55.681Z,335.47
2018-12-11T22:20:23.600Z,404.90
2018-12-11T22:22:51.569Z,429.30
2018-12-11T22:25:19.465Z,324.63
2018-12-11T22:27:47.393Z,269.10
2018-12-11T22:30:15.293Z,544.93
2018-12-11T22:32:43.193Z,553.73
2018-12-11T22:35:11.210Z,123.77
2018-12-11T22:37:39.089Z,243.60
2018-12-11T22:40:06.989Z,606.40
2018-12-11T22:42:34.888Z,554.97
2018-12-11T22:45:02.820Z,392.23
2018-12-11T22:47:30.713Z,336.47
2018-12-11T22:49:58.609Z,440.93
2018-12-11T22:52:26.541Z,550.90
2018-12-11T22:54:54.429Z,272.93
2018-12-11T22:57:22.330Z,349.80
2018-12-11T22:59:50.230Z,356.57
2018-12-11T23:02:18.147Z,693.07
2018-12-11T23:04:46.057Z,351.30
2018-12-11T23:07:13.971Z,720.43
2018-12-11T23:09:44.731Z,312.50
2018-12-11T23:12:12.714Z,530.10
2018-12-11T23:14:40.648Z,255.03
2018-12-11T23:17:08.569Z,484.43
2018-12-11T23:19:36.472Z,973.00
2018-12-11T23:22:04.372Z,470.20
2018-12-11T23:24:32.357Z,498.77
2018-12-11T23:27:00.289Z,595.43
2018-12-11T23:29:28.185Z,536.53
2018-12-11T23:31:56.097Z,418.33
2018-12-11T23:34:23.993Z,700.13
2018-12-11T23:36:51.909Z,574.37
2018-12-11T23:39:19.909Z,552.83
2018-12-11T23:41:47.876Z,663.07
2018-12-11T23:44:15.777Z,612.43
2018-12-11T23:46:43.676Z,897.67
2018-12-11T23:49:11.568Z,622.20
2018-12-11T23:51:39.489Z,701.67
2018-12-11T23:54:07.424Z,705.77
2018-12-11T23:56:35.344Z,710.43
2018-12-11T23:59:03.262Z,536.97
